KLM81U ORBI-EHAM
Flight info
| Callsign | KLM81U |
|---|---|
| Flight time | N/A |
| Altitude | 38000 |
| Route | LAGLO L718 KABAN UL718 ULSAB UL614 GEM UT32 BUK UL602 MAKOL DCT KOMAN DCT AGMEL DCT TEKVI DCT PEPIK DCT SUPIL DCT WERRA DCT NORKU |
| Aircraft | B78X/H-SDE1E2E3FGHIJ2J3J4J5M1RWXY/LB1D1 |
Departure
| Time | 2026-05-01 12:51 |
|---|---|
| Airport | Baghdad International Airport / New Al Muthana Air Base (ORBI) |
Arrival
| Time | N/A |
|---|---|
| Airport | Amsterdam Airport Schiphol (EHAM) |
| Time | Latitude | Longitude | Altitude | Speed | Heading |
|---|---|---|---|---|---|
| 2026-05-01 12:41 | 33.25560 | 44.23282 | 119 ft | 0 kts | 60° |
| 2026-05-01 12:45 | 33.25543 | 44.23250 | 114 ft | 2 kts | 86° |
| 2026-05-01 12:45 | 33.25544 | 44.23230 | 114 ft | 2 kts | 135° |
| 2026-05-01 12:45 | 33.25552 | 44.23220 | 114 ft | 0 kts | 167° |
| 2026-05-01 12:46 | 33.25551 | 44.23220 | 114 ft | 1 kts | 167° |
| 2026-05-01 12:46 | 33.25541 | 44.23223 | 114 ft | 3 kts | 167° |
| 2026-05-01 12:46 | 33.25513 | 44.23227 | 116 ft | 6 kts | 174° |
| 2026-05-01 12:46 | 33.25461 | 44.23218 | 116 ft | 9 kts | 194° |
| 2026-05-01 12:47 | 33.25414 | 44.23163 | 114 ft | 11 kts | 239° |
| 2026-05-01 12:47 | 33.25371 | 44.23074 | 114 ft | 14 kts | 239° |
| 2026-05-01 12:47 | 33.25284 | 44.23023 | 115 ft | 15 kts | 173° |
| 2026-05-01 12:47 | 33.25181 | 44.23087 | 114 ft | 18 kts | 148° |
| 2026-05-01 12:48 | 33.25067 | 44.23176 | 114 ft | 21 kts | 144° |
| 2026-05-01 12:48 | 33.24936 | 44.23271 | 115 ft | 23 kts | 153° |
| 2026-05-01 12:48 | 33.24785 | 44.23365 | 117 ft | 26 kts | 151° |
| 2026-05-01 12:48 | 33.24626 | 44.23477 | 114 ft | 28 kts | 148° |
| 2026-05-01 12:49 | 33.24463 | 44.23595 | 116 ft | 25 kts | 149° |
| 2026-05-01 12:49 | 33.24372 | 44.23599 | 115 ft | 10 kts | 220° |
| 2026-05-01 12:49 | 33.24328 | 44.23530 | 114 ft | 11 kts | 239° |
| 2026-05-01 12:49 | 33.24310 | 44.23450 | 117 ft | 7 kts | 285° |
| 2026-05-01 12:50 | 33.24343 | 44.23412 | 113 ft | 7 kts | 324° |
| 2026-05-01 12:50 | 33.24403 | 44.23370 | 116 ft | 17 kts | 330° |
| 2026-05-01 12:50 | 33.24516 | 44.23293 | 115 ft | 40 kts | 330° |
| 2026-05-01 12:50 | 33.24998 | 44.22962 | 115 ft | 123 kts | 330° |
| 2026-05-01 12:51 | 33.25950 | 44.22360 | 332 ft | 181 kts | 339° |
| 2026-05-01 12:51 | 33.27192 | 44.21623 | 1131 ft | 205 kts | 332° |
| 2026-05-01 12:51 | 33.29812 | 44.19910 | 3051 ft | 216 kts | 331° |
| 2026-05-01 12:52 | 33.31121 | 44.19067 | 4166 ft | 218 kts | 337° |
| 2026-05-01 12:52 | 33.34143 | 44.18878 | 6162 ft | 222 kts | 346° |
| 2026-05-01 12:52 | 33.35467 | 44.17966 | 7103 ft | 222 kts | 321° |
| 2026-05-01 12:53 | 33.37572 | 44.15243 | 9033 ft | 224 kts | 311° |
| 2026-05-01 12:53 | 33.38645 | 44.13876 | 9779 ft | 237 kts | 313° |
| 2026-05-01 12:53 | 33.39861 | 44.12331 | 9994 ft | 276 kts | 312° |
| 2026-05-01 12:54 | 33.41258 | 44.10503 | 10086 ft | 316 kts | 311° |
| 2026-05-01 12:54 | 33.44372 | 44.06419 | 11532 ft | 342 kts | 311° |
| 2026-05-01 12:54 | 33.46008 | 44.04284 | 12476 ft | 348 kts | 311° |
| 2026-05-01 12:55 | 33.49090 | 44.00245 | 14191 ft | 357 kts | 310° |
| 2026-05-01 12:55 | 33.50751 | 43.98066 | 15053 ft | 361 kts | 310° |
| 2026-05-01 12:55 | 33.51577 | 43.96983 | 15469 ft | 363 kts | 310° |
| 2026-05-01 12:56 | 33.52976 | 43.95149 | 16158 ft | 367 kts | 310° |
| 2026-05-01 12:56 | 33.54706 | 43.92877 | 16991 ft | 371 kts | 309° |
| 2026-05-01 12:56 | 33.56458 | 43.90575 | 17806 ft | 376 kts | 309° |
| 2026-05-01 12:56 | 33.58219 | 43.88259 | 18551 ft | 380 kts | 309° |
| 2026-05-01 12:57 | 33.60022 | 43.85888 | 19279 ft | 384 kts | 309° |
| 2026-05-01 12:57 | 33.63649 | 43.81111 | 20693 ft | 391 kts | 309° |
| 2026-05-01 12:57 | 33.65486 | 43.78690 | 21393 ft | 394 kts | 308° |
| 2026-05-01 12:58 | 33.67337 | 43.76248 | 22077 ft | 397 kts | 308° |
| 2026-05-01 12:58 | 33.69205 | 43.73783 | 22739 ft | 400 kts | 308° |
| 2026-05-01 12:58 | 33.71085 | 43.71299 | 23382 ft | 404 kts | 308° |
| 2026-05-01 12:59 | 33.74894 | 43.66263 | 24452 ft | 410 kts | 308° |
| 2026-05-01 12:59 | 33.76814 | 43.63722 | 24954 ft | 412 kts | 308° |
| 2026-05-01 12:59 | 33.80691 | 43.58582 | 25962 ft | 418 kts | 308° |
| 2026-05-01 13:00 | 33.84593 | 43.53405 | 26974 ft | 423 kts | 307° |
| 2026-05-01 13:00 | 33.86572 | 43.50776 | 27474 ft | 425 kts | 307° |
| 2026-05-01 13:01 | 33.90566 | 43.45463 | 28455 ft | 430 kts | 307° |
| 2026-05-01 13:01 | 33.92578 | 43.42784 | 28962 ft | 433 kts | 307° |
| 2026-05-01 13:01 | 33.96633 | 43.37378 | 29921 ft | 437 kts | 307° |
| 2026-05-01 13:02 | 33.98676 | 43.34651 | 30328 ft | 440 kts | 306° |
| 2026-05-01 13:07 | 34.42632 | 42.75466 | 37748 ft | 461 kts | 306° |
| 2026-05-01 13:07 | 34.44771 | 42.72560 | 37906 ft | 465 kts | 306° |
| 2026-05-01 13:08 | 34.49039 | 42.66757 | 37900 ft | 463 kts | 306° |
| 2026-05-01 13:08 | 34.53318 | 42.60926 | 37917 ft | 462 kts | 306° |
| 2026-05-01 13:09 | 34.57583 | 42.55106 | 37902 ft | 461 kts | 306° |
| 2026-05-01 13:09 | 34.61838 | 42.49287 | 37902 ft | 461 kts | 306° |
| 2026-05-01 13:10 | 34.66093 | 42.43463 | 37901 ft | 461 kts | 306° |
| 2026-05-01 13:10 | 34.70344 | 42.37631 | 37907 ft | 459 kts | 306° |
| 2026-05-01 13:11 | 34.74565 | 42.31833 | 37903 ft | 457 kts | 306° |
| 2026-05-01 13:11 | 34.78773 | 42.26040 | 37901 ft | 457 kts | 306° |
| 2026-05-01 13:12 | 34.82949 | 42.20285 | 37906 ft | 457 kts | 306° |
| 2026-05-01 13:12 | 34.87143 | 42.14493 | 37895 ft | 455 kts | 306° |
| 2026-05-01 13:13 | 34.91327 | 42.08707 | 37901 ft | 455 kts | 306° |
| 2026-05-01 13:13 | 34.95499 | 42.02925 | 37900 ft | 455 kts | 306° |
| 2026-05-01 13:14 | 34.99686 | 41.97116 | 37911 ft | 455 kts | 306° |
| 2026-05-01 13:14 | 35.03847 | 41.91331 | 37902 ft | 453 kts | 306° |
| 2026-05-01 13:15 | 35.07947 | 41.85621 | 37903 ft | 453 kts | 306° |
| 2026-05-01 13:15 | 35.12085 | 41.79850 | 37900 ft | 453 kts | 306° |
| 2026-05-01 13:16 | 35.16248 | 41.74035 | 37899 ft | 452 kts | 305° |
| 2026-05-01 13:16 | 35.20385 | 41.68245 | 37900 ft | 452 kts | 305° |
| 2026-05-01 13:17 | 35.28606 | 41.56710 | 37897 ft | 452 kts | 305° |
| 2026-05-01 13:18 | 35.34793 | 41.48004 | 37912 ft | 452 kts | 305° |
| 2026-05-01 13:18 | 35.38915 | 41.42192 | 37877 ft | 452 kts | 305° |
| 2026-05-01 13:19 | 35.43073 | 41.36319 | 37908 ft | 452 kts | 305° |
| 2026-05-01 13:20 | 35.49215 | 41.27624 | 37888 ft | 451 kts | 305° |
| 2026-05-01 13:20 | 35.53349 | 41.21759 | 37887 ft | 451 kts | 305° |
| 2026-05-01 13:21 | 35.59505 | 41.13009 | 37900 ft | 451 kts | 304° |
| 2026-05-01 13:21 | 35.63612 | 41.07156 | 37902 ft | 452 kts | 304° |
| 2026-05-01 13:22 | 35.67694 | 41.01332 | 37902 ft | 452 kts | 304° |
| 2026-05-01 13:22 | 35.71798 | 40.95464 | 37907 ft | 452 kts | 304° |
| 2026-05-01 13:23 | 35.75898 | 40.89593 | 37909 ft | 453 kts | 304° |
| 2026-05-01 13:23 | 35.80011 | 40.83693 | 37909 ft | 453 kts | 304° |
| 2026-05-01 13:24 | 35.84117 | 40.77793 | 37903 ft | 454 kts | 304° |
| 2026-05-01 13:25 | 35.90278 | 40.68921 | 37905 ft | 454 kts | 304° |
| 2026-05-01 13:25 | 35.94382 | 40.62998 | 37903 ft | 454 kts | 304° |
| 2026-05-01 13:26 | 35.98457 | 40.57107 | 37908 ft | 454 kts | 304° |
| 2026-05-01 13:26 | 36.02555 | 40.51171 | 37909 ft | 454 kts | 304° |
| 2026-05-01 13:27 | 36.06651 | 40.45227 | 37909 ft | 455 kts | 304° |
| 2026-05-01 13:27 | 36.12809 | 40.36275 | 37915 ft | 456 kts | 304° |
| 2026-05-01 13:28 | 36.18960 | 40.27307 | 37918 ft | 456 kts | 304° |
| 2026-05-01 13:29 | 36.27180 | 40.15287 | 37931 ft | 457 kts | 304° |
| 2026-05-01 13:31 | 36.39501 | 39.97183 | 37932 ft | 460 kts | 304° |
| 2026-05-01 13:32 | 36.49809 | 39.81968 | 37936 ft | 460 kts | 304° |
| 2026-05-01 13:33 | 36.60094 | 39.66715 | 37934 ft | 460 kts | 304° |
| 2026-05-01 13:34 | 36.68276 | 39.54531 | 37936 ft | 460 kts | 304° |
| 2026-05-01 13:35 | 36.74428 | 39.45341 | 37938 ft | 461 kts | 304° |
| 2026-05-01 13:36 | 36.80578 | 39.36129 | 37939 ft | 461 kts | 304° |
| 2026-05-01 13:36 | 36.86727 | 39.26893 | 37948 ft | 461 kts | 304° |
| 2026-05-01 13:37 | 36.90132 | 39.21767 | 37940 ft | 461 kts | 304° |
| 2026-05-01 13:37 | 36.94920 | 39.14545 | 37933 ft | 461 kts | 304° |
| 2026-05-01 13:38 | 37.01029 | 39.05308 | 37939 ft | 462 kts | 304° |
| 2026-05-01 13:39 | 37.05116 | 38.99115 | 37939 ft | 462 kts | 304° |
| 2026-05-01 13:39 | 37.09202 | 38.92912 | 37938 ft | 461 kts | 304° |
| 2026-05-01 13:40 | 37.13284 | 38.86702 | 37942 ft | 462 kts | 305° |
| 2026-05-01 13:40 | 37.17366 | 38.80482 | 37944 ft | 462 kts | 304° |
| 2026-05-01 13:41 | 37.21447 | 38.74251 | 37948 ft | 462 kts | 304° |
| 2026-05-01 13:41 | 37.25523 | 38.68016 | 37947 ft | 462 kts | 304° |
| 2026-05-01 13:42 | 37.29595 | 38.61775 | 37944 ft | 462 kts | 305° |
| 2026-05-01 13:42 | 37.32980 | 38.56579 | 37944 ft | 462 kts | 304° |
| 2026-05-01 13:43 | 37.37710 | 38.49303 | 37950 ft | 462 kts | 304° |
| 2026-05-01 13:43 | 37.41773 | 38.43041 | 37947 ft | 462 kts | 304° |
| 2026-05-01 13:44 | 37.45173 | 38.37791 | 37946 ft | 462 kts | 304° |
| 2026-05-01 13:44 | 37.49204 | 38.31557 | 37944 ft | 462 kts | 304° |
| 2026-05-01 13:45 | 37.51154 | 38.28537 | 37951 ft | 462 kts | 304° |
| 2026-05-01 13:45 | 37.51988 | 38.27245 | 37953 ft | 462 kts | 304° |
| 2026-05-01 13:46 | 37.55897 | 38.21179 | 37945 ft | 462 kts | 304° |
| 2026-05-01 13:46 | 37.59944 | 38.14889 | 37950 ft | 462 kts | 304° |
| 2026-05-01 13:47 | 37.63989 | 38.08588 | 37954 ft | 462 kts | 304° |
| 2026-05-01 13:47 | 37.68027 | 38.02287 | 37952 ft | 463 kts | 304° |
| 2026-05-01 13:48 | 37.72073 | 37.95962 | 37955 ft | 464 kts | 304° |
| 2026-05-01 13:48 | 37.76130 | 37.89608 | 37947 ft | 462 kts | 304° |
| 2026-05-01 13:49 | 37.80156 | 37.83287 | 37949 ft | 462 kts | 304° |
| 2026-05-01 13:49 | 37.84149 | 37.77009 | 37952 ft | 462 kts | 304° |
| 2026-05-01 13:50 | 37.88173 | 37.70669 | 37960 ft | 462 kts | 304° |
| 2026-05-01 13:50 | 37.92188 | 37.64331 | 37956 ft | 461 kts | 304° |
| 2026-05-01 13:51 | 37.96202 | 37.57981 | 37958 ft | 462 kts | 304° |
| 2026-05-01 13:51 | 38.00214 | 37.51623 | 37957 ft | 462 kts | 304° |
| 2026-05-01 13:52 | 38.04221 | 37.45260 | 37945 ft | 462 kts | 304° |
| 2026-05-01 13:52 | 38.08221 | 37.38898 | 37957 ft | 461 kts | 304° |
| 2026-05-01 13:53 | 38.12217 | 37.32529 | 37928 ft | 462 kts | 304° |
| 2026-05-01 13:53 | 38.18226 | 37.22926 | 37933 ft | 463 kts | 304° |
| 2026-05-01 13:54 | 38.22235 | 37.16501 | 37936 ft | 464 kts | 303° |
| 2026-05-01 13:54 | 38.26166 | 37.10195 | 37931 ft | 464 kts | 303° |
| 2026-05-01 13:55 | 38.26634 | 37.09442 | 37927 ft | 464 kts | 303° |
| 2026-05-01 13:55 | 38.28126 | 37.07043 | 37926 ft | 464 kts | 303° |
| 2026-05-01 13:56 | 38.31016 | 37.02391 | 37918 ft | 464 kts | 303° |
| 2026-05-01 13:56 | 38.33502 | 36.98386 | 37928 ft | 464 kts | 304° |
| 2026-05-01 13:57 | 38.34863 | 36.96190 | 37917 ft | 464 kts | 304° |
| 2026-05-01 13:57 | 38.38864 | 36.89728 | 37912 ft | 464 kts | 304° |
| 2026-05-01 13:58 | 38.41595 | 36.85309 | 37912 ft | 464 kts | 304° |
| 2026-05-01 13:59 | 38.42946 | 36.83123 | 37910 ft | 464 kts | 303° |
| 2026-05-01 13:59 | 38.45094 | 36.79641 | 37909 ft | 464 kts | 303° |
| 2026-05-01 14:00 | 38.49081 | 36.73167 | 37915 ft | 461 kts | 303° |
| 2026-05-01 14:00 | 38.53019 | 36.66763 | 37903 ft | 456 kts | 303° |
| 2026-05-01 14:01 | 38.56871 | 36.60481 | 37901 ft | 458 kts | 303° |
| 2026-05-01 14:01 | 38.60806 | 36.54058 | 37893 ft | 459 kts | 303° |
| 2026-05-01 14:02 | 38.64742 | 36.47615 | 37917 ft | 461 kts | 303° |
| 2026-05-01 14:02 | 38.68686 | 36.41151 | 37890 ft | 462 kts | 303° |
| 2026-05-01 14:03 | 38.72649 | 36.34638 | 37882 ft | 462 kts | 303° |
| 2026-05-01 14:03 | 38.76568 | 36.28187 | 37878 ft | 462 kts | 303° |
| 2026-05-01 14:04 | 38.80535 | 36.21644 | 37872 ft | 462 kts | 303° |
| 2026-05-01 14:04 | 38.84437 | 36.15194 | 37869 ft | 462 kts | 303° |
| 2026-05-01 14:05 | 38.88383 | 36.08659 | 37876 ft | 462 kts | 303° |
| 2026-05-01 14:05 | 38.92295 | 36.02166 | 37859 ft | 463 kts | 303° |
| 2026-05-01 14:06 | 38.96233 | 35.95620 | 37862 ft | 463 kts | 303° |
| 2026-05-01 14:06 | 39.00148 | 35.89095 | 37861 ft | 462 kts | 303° |
| 2026-05-01 14:07 | 39.04088 | 35.82516 | 37863 ft | 463 kts | 303° |
| 2026-05-01 14:08 | 39.09974 | 35.72663 | 37868 ft | 462 kts | 303° |
| 2026-05-01 14:08 | 39.13885 | 35.66098 | 37870 ft | 462 kts | 303° |
| 2026-05-01 14:09 | 39.17796 | 35.59521 | 37866 ft | 462 kts | 303° |
| 2026-05-01 14:09 | 39.21703 | 35.52937 | 37872 ft | 461 kts | 303° |
| 2026-05-01 14:10 | 39.25575 | 35.46398 | 37867 ft | 461 kts | 303° |
| 2026-05-01 14:10 | 39.29469 | 35.39810 | 37876 ft | 462 kts | 303° |
| 2026-05-01 14:11 | 39.33358 | 35.33214 | 37878 ft | 461 kts | 303° |